sensor_id;sensor_type;location;lat;lon;timestamp;pressure;altitude;pressure_sealevel;temperature;humidity
3206;BME280;1615;53.602;11.418;2023-10-09T00:00:50;101758.94;;;13.38;100.00
3206;BME280;1615;53.602;11.418;2023-10-09T00:03:17;101762.03;;;13.36;100.00
3206;BME280;1615;53.602;11.418;2023-10-09T00:05:43;101766.72;;;13.31;100.00
3206;BME280;1615;53.602;11.418;2023-10-09T00:08:11;101762.25;;;13.40;100.00
3206;BME280;1615;53.602;11.418;2023-10-09T00:10:57;101756.50;;;13.36;100.00
3206;BME280;1615;53.602;11.418;2023-10-09T00:13:24;101650.16;;;12.68;100.00
3206;BME280;1615;53.602;11.418;2023-10-09T00:15:56;101730.44;;;13.24;100.00
3206;BME280;1615;53.602;11.418;2023-10-09T00:18:27;101734.56;;;13.26;100.00
3206;BME280;1615;53.602;11.418;2023-10-09T00:20:56;101734.84;;;13.25;100.00
3206;BME280;1615;53.602;11.418;2023-10-09T00:23:26;101735.72;;;13.20;100.00
3206;BME280;1615;53.602;11.418;2023-10-09T00:25:51;101735.41;;;13.22;100.00
3206;BME280;1615;53.602;11.418;2023-10-09T00:28:39;101559.94;;;12.32;100.00
3206;BME280;1615;53.602;11.418;2023-10-09T00:31:11;101699.34;;;13.18;100.00
3206;BME280;1615;53.602;11.418;2023-10-09T00:33:43;101712.34;;;13.13;100.00
3206;BME280;1615;53.602;11.418;2023-10-09T00:36:09;101690.09;;;13.09;100.00
3206;BME280;1615;53.602;11.418;2023-10-09T00:38:38;101687.63;;;13.08;100.00
3206;BME280;1615;53.602;11.418;2023-10-09T00:41:11;101684.88;;;13.08;100.00
3206;BME280;1615;53.602;11.418;2023-10-09T00:43:44;101690.69;;;13.01;100.00
3206;BME280;1615;53.602;11.418;2023-10-09T00:46:10;101680.44;;;13.12;100.00
3206;BME280;1615;53.602;11.418;2023-10-09T00:48:49;101668.63;;;13.06;100.00
3206;BME280;1615;53.602;11.418;2023-10-09T00:51:18;101713.22;;;13.03;100.00
3206;BME280;1615;53.602;11.418;2023-10-09T00:53:56;101673.28;;;13.06;100.00
3206;BME280;1615;53.602;11.418;2023-10-09T00:56:25;101652.97;;;13.02;100.00
3206;BME280;1615;53.602;11.418;2023-10-09T00:58:51;101660.16;;;12.98;100.00
3206;BME280;1615;53.602;11.418;2023-10-09T01:01:22;101641.75;;;12.93;100.00
3206;BME280;1615;53.602;11.418;2023-10-09T01:03:52;101631.56;;;12.89;100.00
3206;BME280;1615;53.602;11.418;2023-10-09T01:06:17;101638.47;;;12.86;100.00
3206;BME280;1615;53.602;11.418;2023-10-09T01:08:46;101625.78;;;12.90;100.00
3206;BME280;1615;53.602;11.418;2023-10-09T01:11:31;101627.94;;;12.98;100.00
3206;BME280;1615;53.602;11.418;2023-10-09T01:13:57;101617.75;;;12.99;100.00
3206;BME280;1615;53.602;11.418;2023-10-09T01:16:37;101425.34;;;11.78;100.00
3206;BME280;1615;53.602;11.418;2023-10-09T01:19:03;101618.88;;;12.93;100.00
3206;BME280;1615;53.602;11.418;2023-10-09T01:21:38;101620.03;;;12.87;100.00
3206;BME280;1615;53.602;11.418;2023-10-09T01:24:05;101617.31;;;12.82;100.00
3206;BME280;1615;53.602;11.418;2023-10-09T01:26:35;101619.22;;;12.86;100.00
3206;BME280;1615;53.602;11.418;2023-10-09T01:29:12;101622.16;;;12.95;100.00
3206;BME280;1615;53.602;11.418;2023-10-09T01:31:51;101264.84;;;10.74;100.00
3206;BME280;1615;53.602;11.418;2023-10-09T01:34:23;101613.38;;;12.98;100.00
3206;BME280;1615;53.602;11.418;2023-10-09T01:37:14;101613.38;;;12.98;100.00
3206;BME280;1615;53.602;11.418;2023-10-09T01:39:52;101527.16;;;12.40;100.00
3206;BME280;1615;53.602;11.418;2023-10-09T01:42:18;101611.16;;;12.95;100.00
3206;BME280;1615;53.602;11.418;2023-10-09T01:45:00;101621.63;;;12.98;100.00
3206;BME280;1615;53.602;11.418;2023-10-09T01:47:41;101606.81;;;12.89;100.00
3206;BME280;1615;53.602;11.418;2023-10-09T01:50:11;101486.81;;;12.26;100.00
3206;BME280;1615;53.602;11.418;2023-10-09T01:52:44;101570.97;;;12.60;100.00
3206;BME280;1615;53.602;11.418;2023-10-09T01:55:10;101597.97;;;12.92;100.00
3206;BME280;1615;53.602;11.418;2023-10-09T01:57:40;101558.03;;;12.66;100.00
3206;BME280;1615;53.602;11.418;2023-10-09T02:00:09;101552.00;;;12.64;100.00
3206;BME280;1615;53.602;11.418;2023-10-09T02:02:41;101592.47;;;12.92;100.00
3206;BME280;1615;53.602;11.418;2023-10-09T02:05:10;101535.78;;;12.62;100.00
3206;BME280;1615;53.602;11.418;2023-10-09T02:07:36;101566.63;;;12.88;100.00
3206;BME280;1615;53.602;11.418;2023-10-09T02:10:18;101545.44;;;12.88;100.00
3206;BME280;1615;53.602;11.418;2023-10-09T02:12:55;101502.81;;;12.86;100.00
3206;BME280;1615;53.602;11.418;2023-10-09T02:15:28;101486.78;;;12.93;100.00
3206;BME280;1615;53.602;11.418;2023-10-09T02:18:06;101500.59;;;12.88;100.00
3206;BME280;1615;53.602;11.418;2023-10-09T02:23:25;101565.22;;;12.90;100.00
3206;BME280;1615;53.602;11.418;2023-10-09T02:25:56;101563.00;;;12.92;100.00
3206;BME280;1615;53.602;11.418;2023-10-09T02:28:22;101551.69;;;12.99;100.00
3206;BME280;1615;53.602;11.418;2023-10-09T02:30:48;101558.28;;;13.03;100.00
3206;BME280;1615;53.602;11.418;2023-10-09T02:33:17;101579.66;;;13.11;100.00
3206;BME280;1615;53.602;11.418;2023-10-09T02:36:08;101603.38;;;13.07;100.00
3206;BME280;1615;53.602;11.418;2023-10-09T02:38:35;101629.16;;;13.16;100.00
3206;BME280;1615;53.602;11.418;2023-10-09T02:41:05;101572.94;;;13.22;100.00
3206;BME280;1615;53.602;11.418;2023-10-09T02:43:32;101556.78;;;13.15;100.00
3206;BME280;1615;53.602;11.418;2023-10-09T02:46:10;101542.47;;;13.13;100.00
3206;BME280;1615;53.602;11.418;2023-10-09T02:48:55;101523.25;;;13.08;100.00
3206;BME280;1615;53.602;11.418;2023-10-09T02:51:25;101503.22;;;13.03;100.00
3206;BME280;1615;53.602;11.418;2023-10-09T02:53:51;101505.69;;;13.04;100.00
3206;BME280;1615;53.602;11.418;2023-10-09T02:56:17;101489.41;;;13.08;100.00
3206;BME280;1615;53.602;11.418;2023-10-09T02:58:49;101503.09;;;13.13;100.00
3206;BME280;1615;53.602;11.418;2023-10-09T03:01:15;101499.25;;;13.14;100.00
3206;BME280;1615;53.602;11.418;2023-10-09T03:03:41;101326.94;;;12.14;100.00
3206;BME280;1615;53.602;11.418;2023-10-09T03:06:13;101399.78;;;12.45;100.00
3206;BME280;1615;53.602;11.418;2023-10-09T03:08:39;101493.38;;;12.97;100.00
3206;BME280;1615;53.602;11.418;2023-10-09T03:11:07;101491.91;;;13.04;100.00
3206;BME280;1615;53.602;11.418;2023-10-09T03:13:44;101477.50;;;13.12;100.00
3206;BME280;1615;53.602;11.418;2023-10-09T03:16:10;101485.47;;;13.14;100.00
3206;BME280;1615;53.602;11.418;2023-10-09T03:18:44;101468.44;;;13.12;100.00
3206;BME280;1615;53.602;11.418;2023-10-09T03:21:10;101465.75;;;13.07;100.00
3206;BME280;1615;53.602;11.418;2023-10-09T03:23:35;101201.00;;;11.40;100.00
3206;BME280;1615;53.602;11.418;2023-10-09T03:26:00;101456.94;;;13.05;100.00
3206;BME280;1615;53.602;11.418;2023-10-09T03:28:25;101454.84;;;12.97;100.00
3206;BME280;1615;53.602;11.418;2023-10-09T03:30:51;101419.75;;;12.79;100.00
3206;BME280;1615;53.602;11.418;2023-10-09T03:33:18;101454.19;;;13.05;100.00
3206;BME280;1615;53.602;11.418;2023-10-09T03:35:43;101443.84;;;12.97;100.00
3206;BME280;1615;53.602;11.418;2023-10-09T03:38:09;101449.06;;;12.93;100.00
3206;BME280;1615;53.602;11.418;2023-10-09T03:40:41;101437.94;;;12.80;100.00
3206;BME280;1615;53.602;11.418;2023-10-09T03:43:08;101449.03;;;12.98;100.00
3206;BME280;1615;53.602;11.418;2023-10-09T03:45:35;101439.34;;;13.01;100.00
3206;BME280;1615;53.602;11.418;2023-10-09T03:48:00;101426.16;;;13.03;100.00
3206;BME280;1615;53.602;11.418;2023-10-09T03:50:37;101435.53;;;13.02;100.00
3206;BME280;1615;53.602;11.418;2023-10-09T03:53:04;101443.56;;;12.93;100.00
3206;BME280;1615;53.602;11.418;2023-10-09T03:55:31;101414.81;;;12.81;100.00
3206;BME280;1615;53.602;11.418;2023-10-09T03:57:57;101462.53;;;12.95;100.00
3206;BME280;1615;53.602;11.418;2023-10-09T04:00:24;101433.28;;;13.04;100.00
3206;BME280;1615;53.602;11.418;2023-10-09T04:02:54;101428.34;;;13.01;100.00
3206;BME280;1615;53.602;11.418;2023-10-09T04:05:19;101435.75;;;13.05;100.00
3206;BME280;1615;53.602;11.418;2023-10-09T04:07:45;101442.19;;;12.96;100.00
3206;BME280;1615;53.602;11.418;2023-10-09T04:10:10;101435.00;;;12.95;100.00
3206;BME280;1615;53.602;11.418;2023-10-09T04:12:54;101424.59;;;12.92;100.00
3206;BME280;1615;53.602;11.418;2023-10-09T04:15:23;101412.00;;;12.86;100.00
3206;BME280;1615;53.602;11.418;2023-10-09T04:17:49;101415.56;;;12.86;100.00
3206;BME280;1615;53.602;11.418;2023-10-09T04:20:17;101419.09;;;12.92;100.00
3206;BME280;1615;53.602;11.418;2023-10-09T04:22:46;101420.97;;;12.96;100.00
3206;BME280;1615;53.602;11.418;2023-10-09T04:25:25;101408.66;;;12.89;100.00
3206;BME280;1615;53.602;11.418;2023-10-09T04:27:58;101409.25;;;12.86;100.00
3206;BME280;1615;53.602;11.418;2023-10-09T04:30:42;101413.63;;;12.87;100.00
3206;BME280;1615;53.602;11.418;2023-10-09T04:33:21;101409.81;;;12.83;100.00
3206;BME280;1615;53.602;11.418;2023-10-09T04:36:13;101396.72;;;12.75;100.00
3206;BME280;1615;53.602;11.418;2023-10-09T04:38:47;101391.97;;;12.80;100.00
3206;BME280;1615;53.602;11.418;2023-10-09T04:41:28;101403.91;;;12.71;100.00
3206;BME280;1615;53.602;11.418;2023-10-09T04:43:57;101175.53;;;11.30;100.00
3206;BME280;1615;53.602;11.418;2023-10-09T04:46:44;101402.78;;;12.72;100.00
3206;BME280;1615;53.602;11.418;2023-10-09T04:49:10;101093.59;;;10.90;100.00
3206;BME280;1615;53.602;11.418;2023-10-09T04:51:51;101385.13;;;12.78;100.00
3206;BME280;1615;53.602;11.418;2023-10-09T04:54:43;101389.56;;;12.74;100.00
3206;BME280;1615;53.602;11.418;2023-10-09T04:57:27;101391.78;;;12.72;100.00
3206;BME280;1615;53.602;11.418;2023-10-09T04:59:52;101390.97;;;12.71;100.00
3206;BME280;1615;53.602;11.418;2023-10-09T05:02:19;101381.91;;;12.71;100.00
3206;BME280;1615;53.602;11.418;2023-10-09T05:04:48;101372.00;;;12.70;100.00
3206;BME280;1615;53.602;11.418;2023-10-09T05:07:26;101389.56;;;12.74;100.00
3206;BME280;1615;53.602;11.418;2023-10-09T05:10:11;101342.53;;;12.47;100.00
3206;BME280;1615;53.602;11.418;2023-10-09T05:12:42;101213.59;;;11.75;100.00
3206;BME280;1615;53.602;11.418;2023-10-09T05:15:13;101357.25;;;12.61;100.00
3206;BME280;1615;53.602;11.418;2023-10-09T05:17:39;101352.81;;;12.65;100.00
3206;BME280;1615;53.602;11.418;2023-10-09T05:20:06;101339.91;;;12.60;100.00
3206;BME280;1615;53.602;11.418;2023-10-09T05:22:50;101331.38;;;12.62;100.00
3206;BME280;1615;53.602;11.418;2023-10-09T05:25:23;101296.47;;;12.39;100.00
3206;BME280;1615;53.602;11.418;2023-10-09T05:28:09;101332.56;;;12.56;100.00
3206;BME280;1615;53.602;11.418;2023-10-09T05:30:58;101334.19;;;12.57;100.00
3206;BME280;1615;53.602;11.418;2023-10-09T05:33:46;101233.41;;;11.72;100.00
3206;BME280;1615;53.602;11.418;2023-10-09T05:36:11;101403.00;;;12.52;100.00
3206;BME280;1615;53.602;11.418;2023-10-09T05:38:56;101292.28;;;12.18;100.00
3206;BME280;1615;53.602;11.418;2023-10-09T05:41:42;101342.53;;;12.47;100.00
3206;BME280;1615;53.602;11.418;2023-10-09T05:44:16;101332.66;;;12.46;100.00
3206;BME280;1615;53.602;11.418;2023-10-09T05:47:00;101335.47;;;12.41;100.00
3206;BME280;1615;53.602;11.418;2023-10-09T05:49:44;101292.00;;;11.91;100.00
3206;BME280;1615;53.602;11.418;2023-10-09T05:52:19;101311.28;;;12.43;100.00
3206;BME280;1615;53.602;11.418;2023-10-09T05:55:03;101319.50;;;12.43;100.00
3206;BME280;1615;53.602;11.418;2023-10-09T05:57:46;101267.38;;;12.09;100.00
3206;BME280;1615;53.602;11.418;2023-10-09T06:00:20;101297.56;;;12.38;100.00
3206;BME280;1615;53.602;11.418;2023-10-09T06:03:04;101298.59;;;12.42;100.00
3206;BME280;1615;53.602;11.418;2023-10-09T06:05:53;101295.78;;;12.47;100.00
3206;BME280;1615;53.602;11.418;2023-10-09T06:08:22;101297.91;;;12.55;100.00
3206;BME280;1615;53.602;11.418;2023-10-09T06:11:23;101299.59;;;12.51;100.00
3206;BME280;1615;53.602;11.418;2023-10-09T06:13:59;101369.91;;;12.62;100.00
3206;BME280;1615;53.602;11.418;2023-10-09T06:16:28;101320.38;;;12.62;100.00
3206;BME280;1615;53.602;11.418;2023-10-09T06:19:25;101305.50;;;12.63;100.00
3206;BME280;1615;53.602;11.418;2023-10-09T06:21:56;101308.19;;;12.68;100.00
3206;BME280;1615;53.602;11.418;2023-10-09T06:24:38;101311.50;;;12.70;100.00
3206;BME280;1615;53.602;11.418;2023-10-09T06:27:11;101324.66;;;12.73;100.00
3206;BME280;1615;53.602;11.418;2023-10-09T06:29:42;101324.28;;;12.79;100.00
3206;BME280;1615;53.602;11.418;2023-10-09T06:32:11;101319.63;;;12.80;100.00
3206;BME280;1615;53.602;11.418;2023-10-09T06:34:57;101325.34;;;12.83;100.00
3206;BME280;1615;53.602;11.418;2023-10-09T06:37:46;101324.88;;;12.76;100.00
3206;BME280;1615;53.602;11.418;2023-10-09T06:40:34;101388.53;;;12.93;100.00
3206;BME280;1615;53.602;11.418;2023-10-09T06:43:21;101332.09;;;12.96;100.00
3206;BME280;1615;53.602;11.418;2023-10-09T06:45:47;101343.13;;;12.96;100.00
3206;BME280;1615;53.602;11.418;2023-10-09T06:48:22;101348.84;;;12.99;100.00
3206;BME280;1615;53.602;11.418;2023-10-09T06:51:04;101184.69;;;12.06;100.00
3206;BME280;1615;53.602;11.418;2023-10-09T06:53:33;101319.53;;;12.85;100.00
3206;BME280;1615;53.602;11.418;2023-10-09T06:56:17;101348.00;;;12.99;100.00
3206;BME280;1615;53.602;11.418;2023-10-09T06:58:55;101333.59;;;13.07;100.00
3206;BME280;1615;53.602;11.418;2023-10-09T07:01:23;101325.88;;;13.09;100.00
3206;BME280;1615;53.602;11.418;2023-10-09T07:04:07;101335.69;;;13.15;100.00
3206;BME280;1615;53.602;11.418;2023-10-09T07:06:46;101202.06;;;12.43;100.00
3206;BME280;1615;53.602;11.418;2023-10-09T07:09:12;101334.97;;;13.28;100.00
3206;BME280;1615;53.602;11.418;2023-10-09T07:11:40;101340.47;;;13.28;100.00
3206;BME280;1615;53.602;11.418;2023-10-09T07:16:50;101339.28;;;13.34;100.00
3206;BME280;1615;53.602;11.418;2023-10-09T07:19:34;101338.00;;;13.26;100.00
3206;BME280;1615;53.602;11.418;2023-10-09T07:22:00;101342.63;;;13.49;100.00
3206;BME280;1615;53.602;11.418;2023-10-09T07:24:31;101341.03;;;13.62;100.00
3206;BME280;1615;53.602;11.418;2023-10-09T07:27:11;101332.84;;;13.57;100.00
3206;BME280;1615;53.602;11.418;2023-10-09T07:29:41;101327.28;;;13.62;100.00
3206;BME280;1615;53.602;11.418;2023-10-09T07:32:16;101324.50;;;13.62;100.00
3206;BME280;1615;53.602;11.418;2023-10-09T07:34:50;101199.06;;;12.82;100.00
3206;BME280;1615;53.602;11.418;2023-10-09T07:39:48;101345.94;;;13.65;100.00
3206;BME280;1615;53.602;11.418;2023-10-09T07:42:22;101344.78;;;13.71;100.00
3206;BME280;1615;53.602;11.418;2023-10-09T07:45:07;101277.91;;;13.47;100.00
3206;BME280;1615;53.602;11.418;2023-10-09T07:47:59;101307.19;;;13.75;100.00
3206;BME280;1615;53.602;11.418;2023-10-09T07:50:24;101282.97;;;13.58;100.00
3206;BME280;1615;53.602;11.418;2023-10-09T07:52:55;101322.53;;;13.81;100.00
3206;BME280;1615;53.602;11.418;2023-10-09T07:55:40;101324.19;;;13.82;100.00
3206;BME280;1615;53.602;11.418;2023-10-09T07:58:13;101323.06;;;13.83;100.00
3206;BME280;1615;53.602;11.418;2023-10-09T08:00:38;101334.38;;;13.81;100.00
3206;BME280;1615;53.602;11.418;2023-10-09T08:03:39;101329.47;;;13.78;100.00
3206;BME280;1615;53.602;11.418;2023-10-09T08:06:04;101327.03;;;13.77;100.00
3206;BME280;1615;53.602;11.418;2023-10-09T08:08:52;101331.44;;;13.59;100.00
3206;BME280;1615;53.602;11.418;2023-10-09T08:11:44;101330.94;;;13.57;100.00
3206;BME280;1615;53.602;11.418;2023-10-09T08:14:13;101054.91;;;11.90;100.00
3206;BME280;1615;53.602;11.418;2023-10-09T08:16:49;101317.22;;;13.71;100.00
3206;BME280;1615;53.602;11.418;2023-10-09T08:19:16;101322.09;;;13.74;100.00
3206;BME280;1615;53.602;11.418;2023-10-09T08:22:17;101325.28;;;13.81;100.00
3206;BME280;1615;53.602;11.418;2023-10-09T08:25:02;101154.28;;;12.76;100.00
3206;BME280;1615;53.602;11.418;2023-10-09T08:27:29;101335.22;;;13.82;100.00
3206;BME280;1615;53.602;11.418;2023-10-09T08:29:55;101336.22;;;13.86;100.00
3206;BME280;1615;53.602;11.418;2023-10-09T08:32:39;101338.91;;;13.91;100.00
3206;BME280;1615;53.602;11.418;2023-10-09T08:35:07;101342.50;;;13.91;100.00
3206;BME280;1615;53.602;11.418;2023-10-09T08:37:52;101337.47;;;13.93;100.00
3206;BME280;1615;53.602;11.418;2023-10-09T08:40:18;101345.06;;;14.01;100.00
3206;BME280;1615;53.602;11.418;2023-10-09T08:42:52;101391.25;;;14.09;100.00
3206;BME280;1615;53.602;11.418;2023-10-09T08:45:21;101334.09;;;14.15;100.00
3206;BME280;1615;53.602;11.418;2023-10-09T08:47:53;101325.28;;;14.13;100.00
3206;BME280;1615;53.602;11.418;2023-10-09T08:50:22;101199.94;;;13.33;100.00
3206;BME280;1615;53.602;11.418;2023-10-09T08:52:54;101317.69;;;14.23;100.00
3206;BME280;1615;53.602;11.418;2023-10-09T08:55:20;101246.94;;;13.87;100.00
3206;BME280;1615;53.602;11.418;2023-10-09T08:57:46;101318.75;;;14.41;100.00
3206;BME280;1615;53.602;11.418;2023-10-09T09:00:19;101327.63;;;14.51;100.00
3206;BME280;1615;53.602;11.418;2023-10-09T09:02:49;101322.94;;;14.52;100.00
3206;BME280;1615;53.602;11.418;2023-10-09T09:05:18;101294.84;;;14.18;100.00
3206;BME280;1615;53.602;11.418;2023-10-09T09:07:44;101166.53;;;13.53;100.00
3206;BME280;1615;53.602;11.418;2023-10-09T09:10:09;101322.50;;;14.45;100.00
3206;BME280;1615;53.602;11.418;2023-10-09T09:12:47;101220.06;;;13.79;100.00
3206;BME280;1615;53.602;11.418;2023-10-09T09:15:18;101332.09;;;14.34;100.00
3206;BME280;1615;53.602;11.418;2023-10-09T09:17:46;101331.69;;;14.27;100.00
3206;BME280;1615;53.602;11.418;2023-10-09T09:20:26;101323.50;;;14.22;100.00
3206;BME280;1615;53.602;11.418;2023-10-09T09:22:57;101332.50;;;14.27;100.00
3206;BME280;1615;53.602;11.418;2023-10-09T09:25:23;101325.66;;;14.25;100.00
3206;BME280;1615;53.602;11.418;2023-10-09T09:27:56;101331.69;;;14.27;100.00
3206;BME280;1615;53.602;11.418;2023-10-09T09:30:28;101313.50;;;14.26;100.00
3206;BME280;1615;53.602;11.418;2023-10-09T09:33:17;100979.16;;;12.21;100.00
3206;BME280;1615;53.602;11.418;2023-10-09T09:36:01;101349.69;;;14.38;100.00
3206;BME280;1615;53.602;11.418;2023-10-09T09:38:29;101320.28;;;14.47;100.00
3206;BME280;1615;53.602;11.418;2023-10-09T09:41:13;101305.94;;;14.45;100.00
3206;BME280;1615;53.602;11.418;2023-10-09T09:43:50;100920.94;;;12.19;100.00
3206;BME280;1615;53.602;11.418;2023-10-09T09:46:17;101317.13;;;14.67;100.00
3206;BME280;1615;53.602;11.418;2023-10-09T09:48:44;101309.84;;;14.71;100.00
3206;BME280;1615;53.602;11.418;2023-10-09T09:51:13;101172.28;;;13.97;100.00
3206;BME280;1615;53.602;11.418;2023-10-09T09:53:42;101307.56;;;15.00;100.00
3206;BME280;1615;53.602;11.418;2023-10-09T09:56:14;101309.19;;;15.01;100.00
3206;BME280;1615;53.602;11.418;2023-10-09T09:58:43;101273.44;;;14.82;100.00
3206;BME280;1615;53.602;11.418;2023-10-09T10:01:12;101292.63;;;15.01;100.00
3206;BME280;1615;53.602;11.418;2023-10-09T10:03:49;101292.44;;;14.97;100.00
3206;BME280;1615;53.602;11.418;2023-10-09T10:06:18;101294.56;;;15.00;100.00
3206;BME280;1615;53.602;11.418;2023-10-09T10:08:44;101278.03;;;14.87;100.00
3206;BME280;1615;53.602;11.418;2023-10-09T10:11:45;101286.28;;;15.00;100.00
3206;BME280;1615;53.602;11.418;2023-10-09T10:14:14;101287.00;;;15.06;100.00
3206;BME280;1615;53.602;11.418;2023-10-09T10:17:04;101285.88;;;15.07;100.00
3206;BME280;1615;53.602;11.418;2023-10-09T10:22:29;101287.69;;;15.11;100.00
3206;BME280;1615;53.602;11.418;2023-10-09T10:24:58;101026.97;;;13.62;100.00
3206;BME280;1615;53.602;11.418;2023-10-09T10:27:28;101285.81;;;15.34;100.00
3206;BME280;1615;53.602;11.418;2023-10-09T10:32:59;101285.28;;;15.32;100.00
3206;BME280;1615;53.602;11.418;2023-10-09T10:35:35;101281.44;;;15.33;100.00
3206;BME280;1615;53.602;11.418;2023-10-09T10:38:29;101256.25;;;15.34;100.00
3206;BME280;1615;53.602;11.418;2023-10-09T10:41:15;101261.97;;;15.38;100.00
3206;BME280;1615;53.602;11.418;2023-10-09T10:43:44;101280.53;;;15.46;100.00
3206;BME280;1615;53.602;11.418;2023-10-09T10:46:13;101262.75;;;15.38;100.00
3206;BME280;1615;53.602;11.418;2023-10-09T10:48:43;101270.25;;;15.38;100.00
3206;BME280;1615;53.602;11.418;2023-10-09T10:51:14;101269.84;;;15.31;100.00
3206;BME280;1615;53.602;11.418;2023-10-09T10:53:53;101270.56;;;15.23;100.00
3206;BME280;1615;53.602;11.418;2023-10-09T10:56:23;101268.47;;;15.20;100.00
3206;BME280;1615;53.602;11.418;2023-10-09T10:59:00;101266.81;;;15.19;100.00
3206;BME280;1615;53.602;11.418;2023-10-09T11:01:30;101257.00;;;15.13;100.00
3206;BME280;1615;53.602;11.418;2023-10-09T11:04:16;101272.09;;;15.29;100.00
3206;BME280;1615;53.602;11.418;2023-10-09T11:06:51;101274.56;;;15.30;100.00
3206;BME280;1615;53.602;11.418;2023-10-09T11:09:16;101269.63;;;15.27;100.00
3206;BME280;1615;53.602;11.418;2023-10-09T11:11:49;101220.06;;;14.87;100.00
3206;BME280;1615;53.602;11.418;2023-10-09T11:14:15;101278.50;;;15.16;100.00
3206;BME280;1615;53.602;11.418;2023-10-09T11:16:41;101275.09;;;15.19;100.00
3206;BME280;1615;53.602;11.418;2023-10-09T11:19:14;101269.06;;;15.17;100.00
3206;BME280;1615;53.602;11.418;2023-10-09T11:21:53;101288.50;;;15.12;100.00
3206;BME280;1615;53.602;11.418;2023-10-09T11:24:38;101289.75;;;15.06;100.00
3206;BME280;1615;53.602;11.418;2023-10-09T11:27:06;101292.44;;;14.97;100.00
3206;BME280;1615;53.602;11.418;2023-10-09T11:29:35;101222.00;;;14.37;100.00
3206;BME280;1615;53.602;11.418;2023-10-09T11:32:16;101313.81;;;14.92;100.00
3206;BME280;1615;53.602;11.418;2023-10-09T11:35:14;101296.09;;;14.93;100.00
3206;BME280;1615;53.602;11.418;2023-10-09T11:37:56;101289.38;;;14.99;100.00
3206;BME280;1615;53.602;11.418;2023-10-09T11:40:32;101294.25;;;15.02;100.00
3206;BME280;1615;53.602;11.418;2023-10-09T11:43:15;101285.69;;;15.03;100.00
3206;BME280;1615;53.602;11.418;2023-10-09T11:45:40;101285.03;;;15.06;100.00
3206;BME280;1615;53.602;11.418;2023-10-09T11:48:19;101223.78;;;14.69;100.00
3206;BME280;1615;53.602;11.418;2023-10-09T11:50:58;101229.00;;;14.70;100.00
3206;BME280;1615;53.602;11.418;2023-10-09T11:53:42;101278.91;;;15.09;100.00
3206;BME280;1615;53.602;11.418;2023-10-09T11:56:15;101148.81;;;14.26;100.00
3206;BME280;1615;53.602;11.418;2023-10-09T11:58:42;101276.25;;;15.04;100.00
3206;BME280;1615;53.602;11.418;2023-10-09T12:01:12;101285.97;;;15.02;100.00
3206;BME280;1615;53.602;11.418;2023-10-09T12:03:48;101269.72;;;15.00;100.00
3206;BME280;1615;53.602;11.418;2023-10-09T12:06:16;101278.72;;;15.06;100.00
3206;BME280;1615;53.602;11.418;2023-10-09T12:08:44;101120.03;;;14.19;100.00
3206;BME280;1615;53.602;11.418;2023-10-09T12:11:12;101283.19;;;15.15;100.00
3206;BME280;1615;53.602;11.418;2023-10-09T12:13:39;101266.13;;;15.13;100.00
3206;BME280;1615;53.602;11.418;2023-10-09T12:16:07;101271.94;;;15.12;100.00
3206;BME280;1615;53.602;11.418;2023-10-09T12:18:34;101269.06;;;15.17;100.00
3206;BME280;1615;53.602;11.418;2023-10-09T12:21:00;101261.03;;;15.29;100.00
3206;BME280;1615;53.602;11.418;2023-10-09T12:23:30;101079.69;;;14.23;100.00
3206;BME280;1615;53.602;11.418;2023-10-09T12:26:03;101268.56;;;15.50;100.00
3206;BME280;1615;53.602;11.418;2023-10-09T12:28:29;101263.47;;;15.44;100.00
3206;BME280;1615;53.602;11.418;2023-10-09T12:30:55;101253.28;;;15.31;100.00
3206;BME280;1615;53.602;11.418;2023-10-09T12:33:26;101278.56;;;15.24;100.00
3206;BME280;1615;53.602;11.418;2023-10-09T12:35:54;101258.50;;;15.19;100.00
3206;BME280;1615;53.602;11.418;2023-10-09T12:38:25;101258.50;;;15.19;100.00
3206;BME280;1615;53.602;11.418;2023-10-09T12:41:06;101259.03;;;15.21;100.00
3206;BME280;1615;53.602;11.418;2023-10-09T12:43:44;101245.22;;;15.21;100.00
3206;BME280;1615;53.602;11.418;2023-10-09T12:46:10;101261.03;;;15.29;100.00
3206;BME280;1615;53.602;11.418;2023-10-09T12:48:35;101247.75;;;15.31;100.00
3206;BME280;1615;53.602;11.418;2023-10-09T12:51:01;101025.69;;;13.95;100.00
3206;BME280;1615;53.602;11.418;2023-10-09T12:53:32;101246.53;;;15.37;100.00
3206;BME280;1615;53.602;11.418;2023-10-09T12:56:00;101243.84;;;15.32;100.00
3206;BME280;1615;53.602;11.418;2023-10-09T12:58:25;101239.78;;;15.29;100.00
3206;BME280;1615;53.602;11.418;2023-10-09T13:00:52;101166.31;;;14.71;100.00
3206;BME280;1615;53.602;11.418;2023-10-09T13:03:17;101219.59;;;15.07;100.00
3206;BME280;1615;53.602;11.418;2023-10-09T13:05:48;101231.22;;;15.17;100.00
3206;BME280;1615;53.602;11.418;2023-10-09T13:08:27;101144.88;;;14.68;100.00
3206;BME280;1615;53.602;11.418;2023-10-09T13:11:01;101221.63;;;15.15;100.00
3206;BME280;1615;53.602;11.418;2023-10-09T13:13:29;101234.28;;;15.16;100.00
3206;BME280;1615;53.602;11.418;2023-10-09T13:16:16;101222.31;;;15.20;100.00
3206;BME280;1615;53.602;11.418;2023-10-09T13:18:55;101222.47;;;15.24;100.00
3206;BME280;1615;53.602;11.418;2023-10-09T13:21:26;101216.84;;;15.29;100.00
3206;BME280;1615;53.602;11.418;2023-10-09T13:23:52;101209.06;;;15.31;100.00
3206;BME280;1615;53.602;11.418;2023-10-09T13:26:20;101126.44;;;14.77;100.00
3206;BME280;1615;53.602;11.418;2023-10-09T13:28:56;101197.63;;;15.24;100.00
3206;BME280;1615;53.602;11.418;2023-10-09T13:31:23;101218.09;;;15.23;100.00
3206;BME280;1615;53.602;11.418;2023-10-09T13:33:55;101223.19;;;15.29;100.00
3206;BME280;1615;53.602;11.418;2023-10-09T13:36:22;101127.00;;;14.65;100.00